createdAt,value
2023-05-25T00:01:03.495Z,101106.72
2023-05-25T00:03:05.334Z,101108.94
2023-05-25T00:05:09.118Z,101109.53
2023-05-25T00:07:12.097Z,101113.59
2023-05-25T00:09:13.724Z,101114.72
2023-05-25T00:11:15.376Z,101112.03
2023-05-25T00:13:17.095Z,101119.19
2023-05-25T00:15:21.583Z,101114.81
2023-05-25T00:17:23.217Z,101105.13
2023-05-25T00:19:24.876Z,101114.69
2023-05-25T00:21:29.555Z,101112.56
2023-05-25T00:23:32.584Z,101114.22
2023-05-25T00:25:34.193Z,101113.69
2023-05-25T00:27:35.802Z,101112.56
2023-05-25T00:29:37.411Z,101108.56
2023-05-25T00:31:39.417Z,101107.66
2023-05-25T00:33:41.149Z,101108.19
2023-05-25T00:35:43.335Z,101103.84
2023-05-25T00:37:45.133Z,101099.34
2023-05-25T00:39:48.061Z,101105.28
2023-05-25T00:41:49.893Z,101108.06
2023-05-25T00:43:51.580Z,101108.38
2023-05-25T00:45:54.224Z,101109.69
2023-05-25T00:47:56.273Z,101105.16
2023-05-25T00:49:58.048Z,101110.78
2023-05-25T00:51:59.844Z,101108.22
2023-05-25T00:54:02.076Z,101108.53
2023-05-25T00:56:10.074Z,101113.44
2023-05-25T00:58:13.186Z,101111.13
2023-05-25T01:00:17.691Z,101113.56
2023-05-25T01:02:21.326Z,101110.03
2023-05-25T01:04:24.098Z,101111.38
2023-05-25T01:06:30.290Z,101117.00
2023-05-25T01:08:35.593Z,101108.56
2023-05-25T01:10:39.477Z,101113.06
2023-05-25T01:12:44.814Z,101109.13
2023-05-25T01:14:47.385Z,101117.06
2023-05-25T01:16:49.599Z,101114.94
2023-05-25T01:18:51.410Z,101110.59
2023-05-25T01:21:04.120Z,101124.28
2023-05-25T01:23:13.175Z,101123.50
2023-05-25T01:25:18.733Z,101128.88
2023-05-25T01:27:25.044Z,101136.59
2023-05-25T01:29:32.041Z,101139.25
2023-05-25T01:31:35.647Z,101134.56
2023-05-25T01:33:38.460Z,101140.34
2023-05-25T01:35:41.913Z,101145.16
2023-05-25T01:37:47.187Z,101147.16
2023-05-25T01:39:48.837Z,101142.59
2023-05-25T01:41:50.520Z,101148.03
2023-05-25T01:43:53.054Z,101146.19
2023-05-25T01:46:02.545Z,101142.50
2023-05-25T01:48:11.835Z,101145.03
2023-05-25T01:50:21.702Z,101138.81
2023-05-25T01:52:28.603Z,101137.78
2023-05-25T01:54:36.962Z,101138.34
2023-05-25T01:56:40.019Z,101134.59
2023-05-25T01:58:44.464Z,101133.00
2023-05-25T02:00:47.924Z,101134.88
2023-05-25T02:02:52.516Z,101135.94
2023-05-25T02:04:54.775Z,101136.16
2023-05-25T02:06:56.888Z,101130.44
2023-05-25T02:08:58.637Z,101141.00
2023-05-25T02:11:02.012Z,101125.53
2023-05-25T02:13:03.902Z,101138.81
2023-05-25T02:15:06.710Z,101129.75
2023-05-25T02:17:10.812Z,101127.28
2023-05-25T02:19:12.891Z,101132.47
2023-05-25T02:21:14.490Z,101129.78
2023-05-25T02:23:16.157Z,101135.81
2023-05-25T02:25:17.839Z,101141.50
2023-05-25T02:27:20.931Z,101136.91
2023-05-25T02:29:22.575Z,101142.44
2023-05-25T02:31:24.213Z,101139.72
2023-05-25T02:33:25.803Z,101143.53
2023-05-25T02:35:27.470Z,101140.53
2023-05-25T02:37:29.202Z,101134.31
2023-05-25T02:39:33.666Z,101130.25
2023-05-25T02:41:35.296Z,101134.31
2023-05-25T02:43:38.301Z,101134.75
2023-05-25T02:45:39.860Z,101138.00
2023-05-25T02:47:41.529Z,101126.97
2023-05-25T02:49:43.187Z,101130.84
2023-05-25T02:51:44.874Z,101123.03
2023-05-25T02:53:46.582Z,101120.91
2023-05-25T02:55:48.163Z,101122.53
2023-05-25T02:57:49.788Z,101130.44
2023-05-25T02:59:52.832Z,101133.22
2023-05-25T03:01:54.419Z,101134.56
2023-05-25T03:03:56.667Z,101138.09
2023-05-25T03:05:58.321Z,101137.34
2023-05-25T03:07:59.921Z,101137.56
2023-05-25T03:10:01.635Z,101140.00
2023-05-25T03:12:03.924Z,101131.09
2023-05-25T03:14:05.662Z,101138.13
2023-05-25T03:16:08.778Z,101141.06
2023-05-25T03:18:10.445Z,101139.72
2023-05-25T03:20:12.781Z,101142.66
2023-05-25T03:22:14.515Z,101135.06
2023-05-25T03:24:16.223Z,101136.72
2023-05-25T03:26:17.815Z,101133.00
2023-05-25T03:28:19.388Z,101135.75
2023-05-25T03:30:22.067Z,101135.22
2023-05-25T03:32:25.239Z,101136.59
2023-05-25T03:34:27.004Z,101142.84
2023-05-25T03:36:28.639Z,101142.63
2023-05-25T03:38:30.257Z,101152.94
2023-05-25T03:40:31.855Z,101143.47
2023-05-25T03:42:33.464Z,101147.81
2023-05-25T03:44:35.062Z,101152.44
2023-05-25T03:46:37.239Z,101158.94
2023-05-25T03:48:40.298Z,101156.00
2023-05-25T03:50:41.884Z,101160.31
2023-05-25T03:52:43.463Z,101159.00
2023-05-25T03:54:50.651Z,101159.25
2023-05-25T03:56:52.242Z,101170.09
2023-05-25T03:58:53.809Z,101164.13
2023-05-25T04:00:55.410Z,101171.16
2023-05-25T04:02:57.269Z,101164.91
2023-05-25T04:05:00.366Z,101169.50
2023-05-25T04:07:02.051Z,101172.75
2023-05-25T04:09:04.227Z,101178.94
2023-05-25T04:11:05.796Z,101175.97
2023-05-25T04:13:10.489Z,101173.53
2023-05-25T04:15:12.249Z,101178.94
2023-05-25T04:17:13.799Z,101183.28
2023-05-25T04:19:15.499Z,101183.00
2023-05-25T04:21:18.582Z,101181.88
2023-05-25T04:23:20.158Z,101190.47
2023-05-25T04:25:21.761Z,101185.34
2023-05-25T04:27:23.561Z,101191.78
2023-05-25T04:29:25.233Z,101198.81
2023-05-25T04:31:26.928Z,101196.13
2023-05-25T04:33:28.723Z,101200.44
2023-05-25T04:35:30.399Z,101206.84
2023-05-25T04:37:33.877Z,101202.13
2023-05-25T04:39:35.507Z,101200.16
2023-05-25T04:41:37.070Z,101191.69
2023-05-25T04:43:40.412Z,101199.78
2023-05-25T04:45:48.047Z,101192.13
2023-05-25T04:47:49.836Z,101195.38
2023-05-25T04:49:51.604Z,101205.13
2023-05-25T04:51:53.489Z,101205.91
2023-05-25T04:53:56.456Z,101207.47
2023-05-25T04:55:58.167Z,101206.34
2023-05-25T04:57:59.911Z,101207.38
2023-05-25T05:00:01.592Z,101207.03
2023-05-25T05:02:03.435Z,101204.03
2023-05-25T05:04:05.407Z,101212.44
2023-05-25T05:06:07.167Z,101208.19
2023-05-25T05:08:08.813Z,101205.00
2023-05-25T05:10:12.005Z,101206.66
2023-05-25T05:12:13.808Z,101205.63
2023-05-25T05:14:15.887Z,101210.47
2023-05-25T05:16:17.557Z,101215.56
2023-05-25T05:18:19.245Z,101214.13
2023-05-25T05:20:21.049Z,101210.84
2023-05-25T05:22:22.715Z,101216.28
2023-05-25T05:24:24.371Z,101216.50
2023-05-25T05:26:27.407Z,101210.47
2023-05-25T05:28:29.511Z,101213.50
2023-05-25T05:30:33.979Z,101208.72
2023-05-25T05:32:35.709Z,101203.84
2023-05-25T05:34:37.368Z,101207.00
2023-05-25T05:36:52.678Z,101202.31
2023-05-25T05:38:58.728Z,101202.31
2023-05-25T05:41:00.334Z,101206.06
2023-05-25T05:43:03.325Z,101210.34
2023-05-25T05:45:06.019Z,101211.31
2023-05-25T05:47:07.713Z,101207.50
2023-05-25T05:49:09.345Z,101205.53
2023-05-25T05:51:11.304Z,101209.88
2023-05-25T05:53:12.896Z,101217.28
2023-05-25T05:55:14.500Z,101217.38
2023-05-25T05:57:16.167Z,101210.94
2023-05-25T05:59:20.872Z,101219.59
2023-05-25T06:01:22.619Z,101215.41
2023-05-25T06:03:24.282Z,101219.50
2023-05-25T06:05:25.960Z,101214.81
2023-05-25T06:07:27.638Z,101221.00
2023-05-25T06:09:29.305Z,101221.81
2023-05-25T06:11:30.919Z,101224.97
2023-05-25T06:13:32.532Z,101223.06
2023-05-25T06:15:35.706Z,101221.31
2023-05-25T06:17:37.396Z,101222.56
2023-05-25T06:19:39.061Z,101223.00
2023-05-25T06:21:40.670Z,101232.63
2023-05-25T06:23:42.263Z,101231.75
2023-05-25T06:25:44.397Z,101230.94
2023-05-25T06:27:46.505Z,101233.88
2023-05-25T06:29:48.134Z,101230.34
2023-05-25T06:31:51.178Z,101234.53
2023-05-25T06:33:52.893Z,101239.53
2023-05-25T06:35:56.332Z,101241.38
2023-05-25T06:37:58.168Z,101243.19
2023-05-25T06:39:59.867Z,101247.72
2023-05-25T06:42:01.484Z,101247.56
2023-05-25T06:44:03.126Z,101250.41
2023-05-25T06:46:04.894Z,101256.78
2023-05-25T06:48:08.001Z,101249.97
2023-05-25T06:50:10.216Z,101250.78
2023-05-25T06:52:11.952Z,101253.28
2023-05-25T06:54:13.605Z,101248.00
2023-05-25T06:56:15.181Z,101247.78
2023-05-25T06:58:16.992Z,101250.00
2023-05-25T07:00:21.835Z,101247.25
2023-05-25T07:02:23.513Z,101245.84
2023-05-25T07:04:26.555Z,101240.44
2023-05-25T07:06:29.522Z,101241.63
2023-05-25T07:08:31.147Z,101244.94
2023-05-25T07:10:33.582Z,101244.41
2023-05-25T07:12:35.158Z,101247.22
2023-05-25T07:14:37.140Z,101246.47
2023-05-25T07:16:38.862Z,101247.22
2023-05-25T07:18:40.500Z,101244.97
2023-05-25T07:20:44.023Z,101238.00
2023-05-25T07:22:47.330Z,101240.06
2023-05-25T07:24:49.609Z,101237.84
2023-05-25T07:26:51.231Z,101232.47
2023-05-25T07:28:52.969Z,101241.78
2023-05-25T07:30:54.605Z,101232.28
2023-05-25T07:32:56.282Z,101241.88
2023-05-25T07:34:57.976Z,101234.81
2023-05-25T07:37:01.048Z,101230.53
2023-05-25T07:39:05.181Z,101233.03
2023-05-25T07:41:07.497Z,101232.13
2023-05-25T07:43:09.240Z,101233.94
2023-05-25T07:45:11.599Z,101246.78
2023-05-25T07:47:13.413Z,101242.78
2023-05-25T07:49:15.136Z,101250.81
2023-05-25T07:51:16.938Z,101246.25
2023-05-25T07:53:19.943Z,101246.25
2023-05-25T07:55:21.718Z,101249.69
2023-05-25T07:57:23.377Z,101242.75
2023-05-25T07:59:26.480Z,101246.25
2023-05-25T08:01:28.145Z,101250.09
2023-05-25T08:03:47.396Z,101245.84
2023-05-25T08:05:51.185Z,101250.41
2023-05-25T08:07:52.873Z,101245.50
2023-05-25T08:09:55.899Z,101249.00
2023-05-25T08:12:18.711Z,101244.03
2023-05-25T08:14:21.707Z,101254.13
2023-05-25T08:16:23.371Z,101249.75
2023-05-25T08:18:25.133Z,101247.94
2023-05-25T08:20:26.801Z,101236.78
2023-05-25T08:22:28.771Z,101247.59
2023-05-25T08:24:30.513Z,101249.53
2023-05-25T08:26:52.364Z,101245.94
2023-05-25T08:28:55.115Z,101250.16
2023-05-25T08:30:56.828Z,101248.94
2023-05-25T08:32:58.633Z,101255.50
2023-05-25T08:35:00.346Z,101253.19
2023-05-25T08:37:02.038Z,101242.34
2023-05-25T08:39:04.120Z,101249.94
2023-05-25T08:41:07.171Z,101247.34
2023-05-25T08:43:10.389Z,101244.56
2023-05-25T08:45:22.615Z,101246.50
2023-05-25T08:47:31.613Z,101246.31
2023-05-25T08:49:35.466Z,101246.59
2023-05-25T08:51:39.064Z,101247.09
2023-05-25T08:53:43.491Z,101246.44
2023-05-25T08:55:47.525Z,101245.06
2023-05-25T08:57:54.802Z,101249.03
2023-05-25T09:00:03.704Z,101246.88
2023-05-25T09:02:21.223Z,101249.16
2023-05-25T09:04:23.642Z,101241.75
2023-05-25T09:06:26.064Z,101258.56
2023-05-25T09:08:28.055Z,101247.88
2023-05-25T09:10:31.332Z,101251.41
2023-05-25T09:12:33.396Z,101255.44
2023-05-25T09:14:35.552Z,101250.69
2023-05-25T09:16:38.828Z,101254.75
2023-05-25T09:18:40.625Z,101254.88
2023-05-25T09:20:44.352Z,101250.78
2023-05-25T09:22:48.125Z,101251.28
2023-05-25T09:24:49.903Z,101250.25
2023-05-25T09:26:51.902Z,101260.41
2023-05-25T09:28:53.534Z,101249.31
2023-05-25T09:30:56.446Z,101255.81
2023-05-25T09:33:09.872Z,101247.75
2023-05-25T09:35:13.299Z,101250.81
2023-05-25T09:37:16.201Z,101245.41
2023-05-25T09:39:18.275Z,101250.69
2023-05-25T09:41:20.298Z,101251.03
2023-05-25T09:43:36.434Z,101247.28
2023-05-25T09:45:42.274Z,101248.66
2023-05-25T09:47:44.048Z,101252.59
2023-05-25T09:49:47.133Z,101247.81
2023-05-25T09:51:49.561Z,101251.47
2023-05-25T09:53:51.424Z,101248.94
2023-05-25T09:55:54.504Z,101252.66
2023-05-25T09:57:57.086Z,101245.97
2023-05-25T09:59:59.025Z,101247.75
2023-05-25T10:02:01.123Z,101251.81
2023-05-25T10:04:04.669Z,101257.38
2023-05-25T10:06:08.605Z,101256.19
2023-05-25T10:08:11.377Z,101258.72
2023-05-25T10:10:14.825Z,101250.69
2023-05-25T10:12:19.803Z,101258.19
2023-05-25T10:14:29.092Z,101251.16
2023-05-25T10:16:34.126Z,101258.69
2023-05-25T10:18:39.919Z,101258.09
2023-05-25T10:20:42.256Z,101267.69
2023-05-25T10:22:51.653Z,101256.03
2023-05-25T10:24:57.061Z,101256.28
2023-05-25T10:29:25.292Z,101256.41
2023-05-25T10:31:27.554Z,101263.56
2023-05-25T10:35:46.863Z,101259.38
2023-05-25T10:37:58.883Z,101253.84
2023-05-25T10:40:02.106Z,101252.59
2023-05-25T10:42:07.527Z,101257.22
2023-05-25T10:44:09.943Z,101245.50
2023-05-25T10:46:11.951Z,101244.72
2023-05-25T10:48:14.370Z,101250.44
2023-05-25T10:50:20.497Z,101243.72
2023-05-25T11:10:15.233Z,101240.56
2023-05-25T11:12:20.700Z,101233.47
2023-05-25T11:14:23.314Z,101227.63
2023-05-25T11:16:32.087Z,101237.72
2023-05-25T11:18:37.755Z,101238.84
2023-05-25T11:20:39.500Z,101230.16
2023-05-25T11:22:41.295Z,101242.97
2023-05-25T11:24:43.145Z,101242.53
2023-05-25T11:26:59.909Z,101231.75
2023-05-25T11:29:12.028Z,101238.19
2023-05-25T11:31:13.976Z,101226.50
2023-05-25T11:33:15.953Z,101226.16
2023-05-25T11:35:17.739Z,101219.13
2023-05-25T11:37:20.900Z,101223.78
2023-05-25T11:39:25.137Z,101214.06
2023-05-25T11:41:27.087Z,101206.34
2023-05-25T11:43:33.792Z,101207.59
2023-05-25T11:45:35.450Z,101208.97
2023-05-25T11:47:38.151Z,101201.03
2023-05-25T11:49:40.684Z,101201.03
2023-05-25T11:51:43.310Z,101208.41
2023-05-25T11:53:45.622Z,101203.47
2023-05-25T11:55:50.917Z,101203.09
2023-05-25T11:57:56.517Z,101209.50
2023-05-25T12:00:00.760Z,101214.97
2023-05-25T12:02:04.212Z,101217.19
2023-05-25T12:04:09.066Z,101215.63
2023-05-25T12:06:23.842Z,101212.28
2023-05-25T12:08:32.311Z,101205.44
2023-05-25T12:10:34.300Z,101211.78
2023-05-25T12:12:41.270Z,101201.09
2023-05-25T12:14:47.635Z,101203.22
2023-05-25T12:16:51.229Z,101199.72
2023-05-25T12:18:54.953Z,101199.03
2023-05-25T12:20:56.758Z,101196.09
2023-05-25T12:22:58.569Z,101190.56
2023-05-25T12:25:00.307Z,101193.84
2023-05-25T12:27:01.950Z,101190.59
2023-05-25T12:29:05.482Z,101189.34
2023-05-25T12:31:23.488Z,101181.06
2023-05-25T12:33:26.659Z,101179.06
2023-05-25T12:35:28.345Z,101174.69
2023-05-25T12:37:30.013Z,101175.06
2023-05-25T12:39:33.999Z,101177.53
2023-05-25T12:41:54.601Z,101183.50
2023-05-25T12:43:57.134Z,101177.44
2023-05-25T12:45:58.849Z,101178.72
2023-05-25T12:48:02.206Z,101170.66
2023-05-25T12:50:14.265Z,101168.16
2023-05-25T12:52:34.505Z,101165.50
2023-05-25T12:54:41.781Z,101160.84
2023-05-25T12:56:55.827Z,101164.41
2023-05-25T12:59:14.190Z,101167.28
2023-05-25T13:01:15.824Z,101169.69
2023-05-25T13:03:17.805Z,101167.31
2023-05-25T13:05:24.661Z,101160.59
2023-05-25T13:07:26.288Z,101170.53
2023-05-25T13:09:28.328Z,101164.94
2023-05-25T13:11:29.965Z,101170.91
2023-05-25T13:13:31.678Z,101160.91
2023-05-25T13:15:33.512Z,101158.84
2023-05-25T13:17:35.232Z,101150.50
2023-05-25T13:19:36.934Z,101151.66
2023-05-25T13:21:40.034Z,101151.19
2023-05-25T13:23:41.931Z,101147.66
2023-05-25T13:25:43.554Z,101149.25
2023-05-25T13:27:46.766Z,101142.56
2023-05-25T13:29:48.557Z,101142.53
2023-05-25T13:31:50.222Z,101142.53
2023-05-25T13:33:51.917Z,101140.84
2023-05-25T13:35:53.523Z,101146.81
2023-05-25T13:37:56.502Z,101140.84
2023-05-25T13:39:58.155Z,101141.91
2023-05-25T13:41:59.803Z,101144.22
2023-05-25T13:44:01.432Z,101153.38
2023-05-25T13:46:03.193Z,101144.31
2023-05-25T13:48:05.057Z,101151.19
2023-05-25T13:50:07.400Z,101143.63
2023-05-25T13:52:09.052Z,101142.81
2023-05-25T13:54:12.034Z,101132.75
2023-05-25T13:56:13.632Z,101132.41
2023-05-25T13:58:15.306Z,101133.84
2023-05-25T14:00:17.533Z,101130.28
2023-05-25T14:02:19.225Z,101129.09
2023-05-25T14:04:21.059Z,101128.72
2023-05-25T14:06:22.663Z,101132.78
2023-05-25T14:08:24.319Z,101132.03
2023-05-25T14:10:27.327Z,101133.22
2023-05-25T14:12:28.948Z,101130.81
2023-05-25T14:14:31.903Z,101128.03
2023-05-25T14:16:34.404Z,101128.41
2023-05-25T14:18:36.108Z,101124.03
2023-05-25T14:20:38.216Z,101123.50
2023-05-25T14:22:39.940Z,101120.19
2023-05-25T14:24:42.043Z,101126.81
2023-05-25T14:26:45.137Z,101126.31
2023-05-25T14:28:46.773Z,101117.47
2023-05-25T14:30:48.402Z,101120.16
2023-05-25T14:32:50.535Z,101113.75
2023-05-25T14:34:52.239Z,101119.50
2023-05-25T14:36:53.829Z,101120.91
2023-05-25T14:38:55.419Z,101119.59
2023-05-25T14:40:57.087Z,101113.31
2023-05-25T14:43:00.128Z,101113.41
2023-05-25T14:45:02.234Z,101108.59
2023-05-25T14:47:04.592Z,101107.72
2023-05-25T14:49:06.368Z,101106.41
2023-05-25T14:51:08.072Z,101106.66
2023-05-25T14:53:09.745Z,101111.69
2023-05-25T14:55:11.386Z,101115.88
2023-05-25T14:57:13.129Z,101113.81
2023-05-25T14:59:16.164Z,101121.50
2023-05-25T15:01:17.843Z,101115.94
2023-05-25T15:03:19.677Z,101115.50
2023-05-25T15:05:21.446Z,101109.03
2023-05-25T15:07:23.171Z,101122.81
2023-05-25T15:09:24.791Z,101110.53
2023-05-25T15:11:26.679Z,101101.81
2023-05-25T15:13:28.284Z,101106.31
2023-05-25T15:15:31.202Z,101110.03
2023-05-25T15:17:32.986Z,101107.16
2023-05-25T15:19:34.697Z,101115.75
2023-05-25T15:21:36.283Z,101112.47
2023-05-25T15:23:37.976Z,101106.09
2023-05-25T15:25:39.712Z,101114.69
2023-05-25T15:27:41.301Z,101108.41
2023-05-25T15:29:42.916Z,101105.97
2023-05-25T15:31:46.099Z,101110.81
2023-05-25T15:33:56.331Z,101114.41
2023-05-25T15:36:00.167Z,101102.53
2023-05-25T15:38:01.882Z,101105.31
2023-05-25T15:40:03.907Z,101104.53
2023-05-25T15:42:06.383Z,101098.38
2023-05-25T15:44:08.017Z,101104.41
2023-05-25T15:46:09.732Z,101106.44
2023-05-25T15:48:12.953Z,101101.00
2023-05-25T15:50:14.672Z,101109.59
2023-05-25T15:52:16.330Z,101110.75
2023-05-25T15:54:17.947Z,101102.53
2023-05-25T15:56:19.525Z,101107.53
2023-05-25T15:58:21.191Z,101110.31
2023-05-25T16:00:23.281Z,101110.00
2023-05-25T16:02:24.976Z,101102.47
2023-05-25T16:04:28.082Z,101103.97
2023-05-25T16:06:29.968Z,101102.47
2023-05-25T16:08:31.705Z,101095.47
2023-05-25T16:10:33.347Z,101104.91
2023-05-25T16:12:35.390Z,101098.66
2023-05-25T16:14:37.056Z,101100.22
2023-05-25T16:16:38.779Z,101104.97
2023-05-25T16:18:40.458Z,101102.31
2023-05-25T16:20:43.585Z,101106.44
2023-05-25T16:22:45.264Z,101100.88
2023-05-25T16:24:47.149Z,101101.22
2023-05-25T16:26:48.796Z,101101.97
2023-05-25T16:28:50.487Z,101100.78
2023-05-25T16:30:52.393Z,101103.16
2023-05-25T16:32:54.116Z,101106.69
2023-05-25T16:34:55.796Z,101101.50
2023-05-25T16:36:58.846Z,101098.00
2023-05-25T16:39:00.701Z,101107.28
2023-05-25T16:41:02.327Z,101100.31
2023-05-25T16:43:04.161Z,101098.88
2023-05-25T16:45:07.208Z,101103.59
2023-05-25T16:47:08.889Z,101102.88
2023-05-25T16:49:10.557Z,101098.06
2023-05-25T16:51:12.310Z,101104.81
2023-05-25T16:53:15.441Z,101100.91
2023-05-25T16:55:17.132Z,101103.03
2023-05-25T16:57:18.847Z,101105.16
2023-05-25T16:59:20.456Z,101097.25
2023-05-25T17:01:22.313Z,101104.81
2023-05-25T17:03:24.134Z,101096.66
2023-05-25T17:05:25.904Z,101099.28
2023-05-25T17:07:27.670Z,101100.84
2023-05-25T17:09:30.651Z,101100.66
2023-05-25T17:11:32.179Z,101099.44
2023-05-25T17:13:33.897Z,101098.34
2023-05-25T17:15:35.555Z,101098.84
2023-05-25T17:17:37.199Z,101101.59
2023-05-25T17:19:38.965Z,101100.00
2023-05-25T17:21:40.842Z,101103.91
2023-05-25T17:23:42.463Z,101101.88
2023-05-25T17:25:45.681Z,101101.53
2023-05-25T17:27:47.666Z,101098.28
2023-05-25T17:29:49.371Z,101099.53
2023-05-25T17:31:51.317Z,101105.69
2023-05-25T17:33:52.977Z,101099.88
2023-05-25T17:35:54.598Z,101103.69
2023-05-25T17:37:56.397Z,101108.31
2023-05-25T17:39:58.056Z,101112.16
2023-05-25T17:42:01.141Z,101107.09
2023-05-25T17:44:05.656Z,101106.66
2023-05-25T17:46:07.699Z,101107.38
2023-05-25T17:48:11.950Z,101110.47
2023-05-25T17:50:13.808Z,101112.16
2023-05-25T17:52:15.544Z,101115.28
2023-05-25T17:54:17.261Z,101117.31
2023-05-25T17:56:18.975Z,101115.09
2023-05-25T17:58:22.184Z,101113.06
2023-05-25T18:00:24.137Z,101120.53
2023-05-25T18:02:26.050Z,101128.88
2023-05-25T18:04:27.933Z,101120.91
2023-05-25T18:06:29.855Z,101119.00
2023-05-25T18:08:31.477Z,101125.69
2023-05-25T18:10:33.105Z,101121.88
2023-05-25T18:12:34.726Z,101129.31
2023-05-25T18:14:37.743Z,101122.41
2023-05-25T18:16:39.556Z,101129.47
2023-05-25T18:18:41.354Z,101126.31
2023-05-25T18:20:43.229Z,101139.19
2023-05-25T18:22:44.974Z,101133.59
2023-05-25T18:24:46.615Z,101130.13
2023-05-25T18:26:48.493Z,101133.84
2023-05-25T18:28:50.112Z,101137.56
2023-05-25T18:30:53.305Z,101140.25
2023-05-25T18:32:55.043Z,101137.81
2023-05-25T18:34:57.469Z,101133.50
2023-05-25T18:36:59.176Z,101134.38
2023-05-25T18:39:00.809Z,101134.28
2023-05-25T18:41:02.631Z,101142.53
2023-05-25T18:43:04.300Z,101138.16
2023-05-25T18:45:06.866Z,101143.75
2023-05-25T18:47:09.890Z,101139.69
2023-05-25T18:49:11.589Z,101139.78
2023-05-25T18:51:13.234Z,101141.03
2023-05-25T18:53:14.985Z,101142.84
2023-05-25T18:55:17.347Z,101147.59
2023-05-25T18:57:19.018Z,101142.19
2023-05-25T18:59:20.661Z,101148.13
2023-05-25T19:01:23.619Z,101143.09
2023-05-25T19:03:27.886Z,101148.22
2023-05-25T19:05:29.613Z,101146.38
2023-05-25T19:07:31.227Z,101147.97
2023-05-25T19:09:32.889Z,101149.94
2023-05-25T19:11:34.474Z,101151.78
2023-05-25T19:13:36.184Z,101153.72
2023-05-25T19:15:37.919Z,101160.41
2023-05-25T19:17:39.633Z,101166.41
2023-05-25T19:19:42.711Z,101164.19
2023-05-25T19:21:44.387Z,101164.72
2023-05-25T19:23:46.067Z,101173.25
2023-05-25T19:25:47.938Z,101173.41
2023-05-25T19:27:49.761Z,101176.16
2023-05-25T19:29:51.418Z,101184.53
2023-05-25T19:31:53.076Z,101179.63
2023-05-25T19:33:54.839Z,101192.25
2023-05-25T19:35:57.850Z,101190.47
2023-05-25T19:38:01.188Z,101203.44
2023-05-25T19:40:04.034Z,101204.25
2023-05-25T19:42:05.918Z,101203.50
2023-05-25T19:44:07.658Z,101203.38
2023-05-25T19:46:09.582Z,101206.56
2023-05-25T19:48:11.478Z,101211.34
2023-05-25T19:50:13.516Z,101208.72
2023-05-25T19:52:17.107Z,101209.50
2023-05-25T19:54:21.360Z,101212.72
2023-05-25T19:56:22.962Z,101202.31
2023-05-25T19:58:24.850Z,101206.44
2023-05-25T20:00:27.361Z,101212.38
2023-05-25T20:02:29.254Z,101209.69
2023-05-25T20:04:31.086Z,101214.19
2023-05-25T20:06:32.713Z,101220.03
2023-05-25T20:08:36.926Z,101219.94
2023-05-25T20:10:38.857Z,101231.47
2023-05-25T20:12:40.496Z,101217.06
2023-05-25T20:14:43.628Z,101215.91
2023-05-25T20:16:45.306Z,101225.41
2023-05-25T20:18:47.002Z,101225.22
2023-05-25T20:20:48.676Z,101229.34
2023-05-25T20:22:50.550Z,101230.47
2023-05-25T20:24:53.535Z,101233.16
2023-05-25T20:26:55.455Z,101231.66
2023-05-25T20:28:57.398Z,101230.59
2023-05-25T20:30:59.100Z,101230.59
2023-05-25T20:33:00.805Z,101231.97
2023-05-25T20:35:02.572Z,101228.75
2023-05-25T20:37:04.282Z,101236.63
2023-05-25T20:39:05.923Z,101234.47
2023-05-25T20:41:09.526Z,101236.44
2023-05-25T20:43:11.186Z,101237.44
2023-05-25T20:45:12.872Z,101241.41
2023-05-25T20:47:14.539Z,101247.50
2023-05-25T20:49:16.656Z,101240.94
2023-05-25T20:51:18.272Z,101240.66
2023-05-25T20:53:19.924Z,101245.69
2023-05-25T20:55:21.658Z,101245.09
2023-05-25T20:57:24.647Z,101257.38
2023-05-25T20:59:26.292Z,101259.69
2023-05-25T21:01:27.973Z,101251.63
2023-05-25T21:03:29.741Z,101262.72
2023-05-25T21:05:31.615Z,101249.66
2023-05-25T21:07:33.253Z,101259.16
2023-05-25T21:09:34.904Z,101265.66
2023-05-25T21:11:36.554Z,101260.88
2023-05-25T21:13:39.540Z,101268.22
2023-05-25T21:15:41.200Z,101262.13
2023-05-25T21:17:42.845Z,101270.00
2023-05-25T21:19:44.435Z,101258.75
2023-05-25T21:21:46.048Z,101272.22
2023-05-25T21:23:47.739Z,101271.72
2023-05-25T21:25:49.368Z,101268.81
2023-05-25T21:27:51.165Z,101276.06
2023-05-25T21:29:54.417Z,101272.34
2023-05-25T21:31:56.044Z,101277.03
2023-05-25T21:33:58.842Z,101279.97
2023-05-25T21:36:01.907Z,101272.41
2023-05-25T21:38:03.537Z,101273.16
2023-05-25T21:40:08.226Z,101281.88
2023-05-25T21:42:10.052Z,101282.88
2023-05-25T21:44:11.873Z,101280.63
2023-05-25T21:46:14.841Z,101288.03
2023-05-25T21:48:16.552Z,101282.91
2023-05-25T21:50:18.762Z,101286.78
2023-05-25T21:52:20.661Z,101287.59
2023-05-25T21:54:22.305Z,101286.94
2023-05-25T21:56:24.059Z,101294.19
2023-05-25T21:58:25.677Z,101288.25
2023-05-25T22:00:27.541Z,101282.13
2023-05-25T22:02:30.583Z,101285.78
2023-05-25T22:04:32.361Z,101286.63
2023-05-25T22:06:34.027Z,101287.09
2023-05-25T22:08:35.726Z,101287.44
2023-05-25T22:10:38.292Z,101285.66
2023-05-25T22:12:39.950Z,101285.03
2023-05-25T22:14:41.523Z,101289.84
2023-05-25T22:16:43.307Z,101280.38
2023-05-25T22:18:46.309Z,101290.56
2023-05-25T22:20:47.940Z,101292.81
2023-05-25T22:22:49.639Z,101283.00
2023-05-25T22:24:51.538Z,101299.41
2023-05-25T22:26:53.141Z,101289.75
2023-05-25T22:28:54.893Z,101295.84
2023-05-25T22:30:56.707Z,101299.56
2023-05-25T22:32:58.512Z,101302.63
2023-05-25T22:35:01.661Z,101302.44
2023-05-25T22:37:03.421Z,101300.53
2023-05-25T22:39:05.052Z,101301.81
2023-05-25T22:41:07.219Z,101303.72
2023-05-25T22:43:08.905Z,101307.44
2023-05-25T22:45:11.080Z,101301.19
2023-05-25T22:47:13.048Z,101293.13
2023-05-25T22:49:14.778Z,101299.41
2023-05-25T22:51:17.790Z,101303.28
2023-05-25T22:53:19.391Z,101307.78
2023-05-25T22:55:21.244Z,101313.22
2023-05-25T22:57:22.844Z,101315.34
2023-05-25T22:59:24.433Z,101311.31
2023-05-25T23:01:26.110Z,101313.06
2023-05-25T23:03:27.881Z,101324.66
2023-05-25T23:05:29.672Z,101318.50
2023-05-25T23:07:32.723Z,101321.56
2023-05-25T23:09:34.339Z,101320.28
2023-05-25T23:11:35.992Z,101317.41
2023-05-25T23:13:37.614Z,101320.16
2023-05-25T23:15:39.641Z,101320.78
2023-05-25T23:17:41.380Z,101324.31
2023-05-25T23:19:43.188Z,101324.31
2023-05-25T23:21:44.823Z,101328.19
2023-05-25T23:23:48.114Z,101327.50
2023-05-25T23:25:50.077Z,101324.94
2023-05-25T23:27:51.924Z,101332.84
2023-05-25T23:29:53.698Z,101333.44
2023-05-25T23:31:55.376Z,101332.16
2023-05-25T23:33:57.107Z,101334.72
2023-05-25T23:35:59.050Z,101336.66
2023-05-25T23:38:00.733Z,101337.47
2023-05-25T23:40:05.099Z,101334.41
2023-05-25T23:42:07.391Z,101333.41
2023-05-25T23:44:09.035Z,101336.16